North Canton, Ohio
Current Conditions -  °F | °C
As of 6:51 PM on Monday 20 Oct 2014 (Local Time) from KCAK Reporting Station
Light Rain Light Rain  
Wind Chill: 52°   Ceiling: 4000
Heat Index: 52°   Visibility: 10mi
Dew Point: 47°   Wind: 8mph
Humidity: 83%   Direction: 200°SSW
Pressure: 29.85"   Gusts: NA
Location:  40.88°N, 81.4°W
Report Text: KCAK 202251Z 20007KT 10SM -RA BKN040 OVC070 11/08 A2985 RMK AO2 SLP110 P0002 T01110083 $
Loading
Personal Weather Stations






























Interactive Weather Map
Tropical Storm Tracking
New forecast layout! Learn more

10-Day Weather Forecast

Advertisements
Track Severe Weather on mobile